createdAt,value
2024-04-12T00:00:23.918Z,122.96
2024-04-12T00:01:24.058Z,125.37
2024-04-12T00:02:24.164Z,123.11
2024-04-12T00:03:24.206Z,120.37
2024-04-12T00:04:24.193Z,122.08
2024-04-12T00:05:24.240Z,122.30
2024-04-12T00:06:24.320Z,122.20
2024-04-12T00:07:24.383Z,121.92
2024-04-12T00:08:24.440Z,122.75
2024-04-12T00:09:24.532Z,121.58
2024-04-12T00:10:24.600Z,120.60
2024-04-12T00:11:24.685Z,120.39
2024-04-12T00:12:24.721Z,121.25
2024-04-12T00:13:24.775Z,120.68
2024-04-12T00:14:24.844Z,121.73
2024-04-12T00:15:24.926Z,120.09
2024-04-12T00:16:25.007Z,119.58
2024-04-12T00:17:25.094Z,121.74
2024-04-12T00:18:25.192Z,119.51
2024-04-12T00:19:25.325Z,121.56
2024-04-12T00:20:25.276Z,120.38
2024-04-12T00:21:25.332Z,119.88
2024-04-12T00:22:25.364Z,122.24
2024-04-12T00:23:25.414Z,120.82
2024-04-12T00:24:26.056Z,120.76
2024-04-12T00:25:25.557Z,121.18
2024-04-12T00:26:25.646Z,121.33
2024-04-12T00:27:25.662Z,122.04
2024-04-12T00:28:25.698Z,119.83
2024-04-12T00:29:25.755Z,120.58
2024-04-12T00:30:25.822Z,120.04
2024-04-12T00:31:25.846Z,120.19
2024-04-12T00:32:25.913Z,120.91
2024-04-12T00:33:26.142Z,120.21
2024-04-12T00:34:25.939Z,120.64
2024-04-12T00:35:26.002Z,120.69
2024-04-12T00:36:26.049Z,119.93
2024-04-12T00:37:26.085Z,120.22
2024-04-12T00:38:26.129Z,119.32
2024-04-12T00:39:26.187Z,118.58
2024-04-12T00:40:26.236Z,118.44
2024-04-12T00:41:26.288Z,121.19
2024-04-12T00:42:26.359Z,118.49
2024-04-12T00:43:26.413Z,119.56
2024-04-12T00:44:26.487Z,118.79
2024-04-12T00:45:26.539Z,120.08
2024-04-12T00:46:26.625Z,119.83
2024-04-12T00:47:26.730Z,118.10
2024-04-12T00:48:26.816Z,119.08
2024-04-12T00:49:26.801Z,118.61
2024-04-12T00:50:26.866Z,116.62
2024-04-12T00:51:26.932Z,118.44
2024-04-12T00:52:26.991Z,119.71
2024-04-12T00:53:27.068Z,117.76
2024-04-12T00:54:27.124Z,118.47
2024-04-12T00:55:27.194Z,119.77
2024-04-12T00:56:27.266Z,116.93
2024-04-12T00:57:27.302Z,116.78
2024-04-12T00:58:27.389Z,117.85
2024-04-12T00:59:27.441Z,115.66
2024-04-12T01:00:27.496Z,118.28
2024-04-12T01:01:27.652Z,116.89
2024-04-12T01:02:27.674Z,114.19
2024-04-12T01:03:27.769Z,115.95
2024-04-12T01:04:27.891Z,117.03
2024-04-12T01:05:27.829Z,115.61
2024-04-12T01:06:27.908Z,116.80
2024-04-12T01:07:27.999Z,116.32
2024-04-12T01:08:28.040Z,115.98
2024-04-12T01:09:28.113Z,117.35
2024-04-12T01:10:28.997Z,117.58
2024-04-12T01:11:28.230Z,115.25
2024-04-12T01:12:28.919Z,115.52
2024-04-12T01:13:28.366Z,116.84
2024-04-12T01:14:28.430Z,115.49
2024-04-12T01:15:28.457Z,116.08
2024-04-12T01:16:28.588Z,114.88
2024-04-12T01:17:28.654Z,115.36
2024-04-12T01:18:28.706Z,115.52
2024-04-12T01:19:28.700Z,114.17
2024-04-12T01:20:28.748Z,115.40
2024-04-12T01:21:28.821Z,113.56
2024-04-12T01:22:28.858Z,116.30
2024-04-12T01:23:28.923Z,115.56
2024-04-12T01:24:29.015Z,114.82
2024-04-12T01:25:29.053Z,116.81
2024-04-12T01:26:29.240Z,114.24
2024-04-12T01:27:29.203Z,114.00
2024-04-12T01:28:29.266Z,115.33
2024-04-12T01:29:29.319Z,114.94
2024-04-12T01:30:29.384Z,113.88
2024-04-12T01:31:29.448Z,114.64
2024-04-12T01:32:29.523Z,114.57
2024-04-12T01:33:29.656Z,114.53
2024-04-12T01:34:29.622Z,115.10
2024-04-12T01:35:29.681Z,115.36
2024-04-12T01:36:29.761Z,115.92
2024-04-12T01:37:29.811Z,114.83
2024-04-12T01:38:29.884Z,115.34
2024-04-12T01:39:29.988Z,113.86
2024-04-12T01:40:29.984Z,116.12
2024-04-12T01:41:30.053Z,112.20
2024-04-12T01:42:30.095Z,114.55
2024-04-12T01:43:30.213Z,114.47
2024-04-12T01:44:30.238Z,112.86
2024-04-12T01:45:30.304Z,113.22
2024-04-12T01:46:30.366Z,113.31
2024-04-12T01:47:30.525Z,114.01
2024-04-12T01:48:30.877Z,111.58
2024-04-12T01:49:30.579Z,114.12
2024-04-12T01:50:30.631Z,114.35
2024-04-12T01:51:30.696Z,114.08
2024-04-12T01:52:30.737Z,112.31
2024-04-12T01:53:30.810Z,112.25
2024-04-12T01:54:30.883Z,113.71
2024-04-12T01:55:30.935Z,111.89
2024-04-12T01:56:31.027Z,112.59
2024-04-12T01:57:31.051Z,112.21
2024-04-12T01:58:31.125Z,109.32
2024-04-12T01:59:31.187Z,109.63
2024-04-12T02:00:31.283Z,112.50
2024-04-12T02:01:31.335Z,112.96
2024-04-12T02:02:31.380Z,109.39
2024-04-12T02:03:31.766Z,111.69
2024-04-12T02:04:31.678Z,110.93
2024-04-12T02:05:31.577Z,110.75
2024-04-12T02:06:31.637Z,111.24
2024-04-12T02:07:31.705Z,111.29
2024-04-12T02:08:31.837Z,111.19
2024-04-12T02:09:31.847Z,110.74
2024-04-12T02:10:31.924Z,110.63
2024-04-12T02:11:32.055Z,110.82
2024-04-12T02:12:32.059Z,109.98
2024-04-12T02:13:32.103Z,109.98
2024-04-12T02:14:32.220Z,108.77
2024-04-12T02:15:32.265Z,108.94
2024-04-12T02:16:32.337Z,111.96
2024-04-12T02:17:32.495Z,109.20
2024-04-12T02:18:32.508Z,111.47
2024-04-12T02:19:32.500Z,111.41
2024-04-12T02:20:32.591Z,110.21
2024-04-12T02:21:32.613Z,112.52
2024-04-12T02:22:32.667Z,111.76
2024-04-12T02:23:32.741Z,108.72
2024-04-12T02:24:32.790Z,110.28
2024-04-12T02:25:32.865Z,110.14
2024-04-12T02:26:33.005Z,108.29
2024-04-12T02:27:32.995Z,110.62
2024-04-12T02:28:33.045Z,111.49
2024-04-12T02:29:33.236Z,109.34
2024-04-12T02:30:33.181Z,109.97
2024-04-12T02:31:33.272Z,110.29
2024-04-12T02:32:33.399Z,109.18
2024-04-12T02:33:33.942Z,110.66
2024-04-12T02:34:33.442Z,110.23
2024-04-12T02:35:33.570Z,109.92
2024-04-12T02:36:33.593Z,110.23
2024-04-12T02:37:33.662Z,109.34
2024-04-12T02:38:33.734Z,108.30
2024-04-12T02:39:33.779Z,110.04
2024-04-12T02:40:33.844Z,108.78
2024-04-12T02:41:33.920Z,108.74
2024-04-12T02:42:33.938Z,107.65
2024-04-12T02:43:34.051Z,108.48
2024-04-12T02:44:34.104Z,108.15
2024-04-12T02:45:34.166Z,109.73
2024-04-12T02:46:34.212Z,106.90
2024-04-12T02:47:34.387Z,110.29
2024-04-12T02:48:34.430Z,107.56
2024-04-12T02:49:34.422Z,108.11
2024-04-12T02:50:34.527Z,106.74
2024-04-12T02:51:34.521Z,108.59
2024-04-12T02:52:34.578Z,107.45
2024-04-12T02:53:34.647Z,106.75
2024-04-12T02:54:34.715Z,106.03
2024-04-12T02:55:34.777Z,107.21
2024-04-12T02:56:34.882Z,105.82
2024-04-12T02:57:34.889Z,107.21
2024-04-12T02:58:34.962Z,106.32
2024-04-12T02:59:35.036Z,107.51
2024-04-12T03:00:35.084Z,106.01
2024-04-12T03:01:35.146Z,106.84
2024-04-12T03:02:35.270Z,106.50
2024-04-12T03:03:35.347Z,106.50
2024-04-12T03:04:35.341Z,107.15
2024-04-12T03:05:35.467Z,105.04
2024-04-12T03:06:35.495Z,105.83
2024-04-12T03:07:35.518Z,104.74
2024-04-12T03:08:35.616Z,105.46
2024-04-12T03:09:35.593Z,104.56
2024-04-12T03:10:35.616Z,104.74
2024-04-12T03:11:36.626Z,105.27
2024-04-12T03:12:35.712Z,105.44
2024-04-12T03:13:35.778Z,106.54
2024-04-12T03:14:35.853Z,104.83
2024-04-12T03:15:35.816Z,106.39
2024-04-12T03:16:35.915Z,107.16
2024-04-12T03:17:35.927Z,104.82
2024-04-12T03:18:36.036Z,105.79
2024-04-12T03:19:35.952Z,106.89
2024-04-12T03:20:36.013Z,103.81
2024-04-12T03:21:36.022Z,103.80
2024-04-12T03:22:36.048Z,103.22
2024-04-12T03:23:36.050Z,105.06
2024-04-12T03:24:36.078Z,105.85
2024-04-12T03:25:36.128Z,106.08
2024-04-12T03:26:36.216Z,106.68
2024-04-12T03:27:36.260Z,106.74
2024-04-12T03:28:36.307Z,107.19
2024-04-12T03:29:36.423Z,105.47
2024-04-12T03:30:36.450Z,108.48
2024-04-12T03:31:36.550Z,106.10
2024-04-12T03:32:36.662Z,107.11
2024-04-12T03:33:36.824Z,108.04
2024-04-12T03:34:36.699Z,108.83
2024-04-12T03:35:36.794Z,106.34
2024-04-12T03:36:36.843Z,107.83
2024-04-12T03:37:36.937Z,105.26
2024-04-12T03:38:37.041Z,107.13
2024-04-12T03:39:37.062Z,106.94
2024-04-12T03:40:37.109Z,106.49
2024-04-12T03:41:37.199Z,105.34
2024-04-12T03:42:37.240Z,105.35
2024-04-12T03:43:37.257Z,108.57
2024-04-12T03:44:37.428Z,106.40
2024-04-12T03:45:37.369Z,108.54
2024-04-12T03:46:37.445Z,108.65
2024-04-12T03:47:37.612Z,108.98
2024-04-12T03:48:37.645Z,108.08
2024-04-12T03:49:37.589Z,109.11
2024-04-12T03:50:37.704Z,108.01
2024-04-12T03:51:37.706Z,107.28
2024-04-12T03:52:37.791Z,108.73
2024-04-12T03:53:37.954Z,108.88
2024-04-12T03:54:37.875Z,107.96
2024-04-12T03:55:37.937Z,108.84
2024-04-12T03:56:37.988Z,107.92
2024-04-12T03:57:38.011Z,108.77
2024-04-12T03:58:38.069Z,108.38
2024-04-12T03:59:38.072Z,109.95
2024-04-12T04:00:38.135Z,109.52
2024-04-12T04:01:38.176Z,110.07
2024-04-12T04:02:38.249Z,107.43
2024-04-12T04:03:38.262Z,109.76
2024-04-12T04:04:38.279Z,107.91
2024-04-12T04:05:38.352Z,109.61
2024-04-12T04:06:38.394Z,108.49
2024-04-12T04:07:38.472Z,108.86
2024-04-12T04:08:38.502Z,108.60
2024-04-12T04:09:38.551Z,110.08
2024-04-12T04:10:38.595Z,108.48
2024-04-12T04:11:38.713Z,108.48
2024-04-12T04:12:38.718Z,108.26
2024-04-12T04:13:38.789Z,110.22
2024-04-12T04:14:38.920Z,109.63
2024-04-12T04:15:38.920Z,108.23
2024-04-12T04:16:38.960Z,108.78
2024-04-12T04:17:39.114Z,107.95
2024-04-12T04:18:39.137Z,107.56
2024-04-12T04:19:39.122Z,107.99
2024-04-12T04:20:39.194Z,107.54
2024-04-12T04:21:39.180Z,109.25
2024-04-12T04:22:39.193Z,107.63
2024-04-12T04:23:39.220Z,105.75
2024-04-12T04:24:39.256Z,106.77
2024-04-12T04:25:39.268Z,109.91
2024-04-12T04:26:39.422Z,108.76
2024-04-12T04:27:39.413Z,108.05
2024-04-12T04:28:39.374Z,109.91
2024-04-12T04:29:39.434Z,111.41
2024-04-12T04:30:39.475Z,110.18
2024-04-12T04:31:39.509Z,111.86
2024-04-12T04:32:39.623Z,111.71
2024-04-12T04:33:39.703Z,113.07
2024-04-12T04:34:39.641Z,110.42
2024-04-12T04:35:39.758Z,111.02
2024-04-12T04:36:39.785Z,110.73
2024-04-12T04:37:40.229Z,110.85
2024-04-12T04:38:39.895Z,111.47
2024-04-12T04:39:39.925Z,111.79
2024-04-12T04:40:39.931Z,113.82
2024-04-12T04:41:40.002Z,113.89
2024-04-12T04:42:40.002Z,110.51
2024-04-12T04:43:40.004Z,111.82
2024-04-12T04:44:40.035Z,112.47
2024-04-12T04:45:40.124Z,112.11
2024-04-12T04:46:47.451Z,50.00
2024-04-12T04:47:47.626Z,50.00
2024-04-12T04:48:47.630Z,50.00
2024-04-12T04:49:47.446Z,50.00
2024-04-12T04:50:47.494Z,50.00
2024-04-12T04:51:47.460Z,52.25
2024-04-12T04:52:47.480Z,51.11
2024-04-12T04:53:47.533Z,52.41
2024-04-12T04:54:47.455Z,50.77
2024-04-12T04:55:47.467Z,50.00
2024-04-12T04:56:47.490Z,50.18
2024-04-12T04:57:47.464Z,51.93
2024-04-12T04:58:47.464Z,52.59
2024-04-12T04:59:47.528Z,51.00
2024-04-12T05:00:47.628Z,53.00
2024-04-12T05:01:47.512Z,52.86
2024-04-12T05:02:47.524Z,53.42
2024-04-12T05:03:47.474Z,54.88
2024-04-12T05:04:47.506Z,54.59
2024-04-12T05:05:47.523Z,54.22
2024-04-12T05:06:47.524Z,52.05
2024-04-12T05:07:47.481Z,54.46
2024-04-12T05:08:47.512Z,53.18
2024-04-12T05:09:47.530Z,55.09
2024-04-12T05:10:47.488Z,53.80
2024-04-12T05:11:47.541Z,55.13
2024-04-12T05:12:47.583Z,52.79
2024-04-12T05:13:47.489Z,53.54
2024-04-12T05:14:47.514Z,55.29
2024-04-12T05:15:47.498Z,55.72
2024-04-12T05:16:47.493Z,53.27
2024-04-12T05:17:47.635Z,52.45
2024-04-12T05:18:47.601Z,52.36
2024-04-12T05:19:47.496Z,53.00
2024-04-12T05:20:47.536Z,53.47
2024-04-12T05:21:47.527Z,51.49
2024-04-12T05:22:47.621Z,53.00
2024-04-12T05:23:47.559Z,53.74
2024-04-12T05:24:47.514Z,52.46
2024-04-12T05:25:47.508Z,54.38
2024-04-12T05:26:47.570Z,53.81
2024-04-12T05:27:47.537Z,53.12
2024-04-12T05:28:47.563Z,55.25
2024-04-12T05:29:48.379Z,55.40
2024-04-12T05:30:47.515Z,53.95
2024-04-12T05:31:47.537Z,56.88
2024-04-12T05:32:47.687Z,63.66
2024-04-12T05:33:47.600Z,71.17
2024-04-12T05:34:47.528Z,79.70
2024-04-12T05:35:47.704Z,86.43
2024-04-12T05:36:47.560Z,91.41
2024-04-12T05:37:51.033Z,96.63
2024-04-12T05:38:47.568Z,96.86
2024-04-12T05:39:47.620Z,97.93
2024-04-12T05:40:47.655Z,100.25
2024-04-12T05:41:47.582Z,102.53
2024-04-12T05:42:47.566Z,109.43
2024-04-12T05:43:47.536Z,108.41
2024-04-12T05:44:47.641Z,110.12
2024-04-12T05:45:47.570Z,110.20
2024-04-12T05:46:47.638Z,114.29
2024-04-12T05:47:48.156Z,113.46
2024-04-12T05:48:47.581Z,115.62
2024-04-12T05:49:47.573Z,112.57
2024-04-12T05:50:47.587Z,112.65
2024-04-12T05:51:47.579Z,111.57
2024-04-12T05:52:47.551Z,111.66
2024-04-12T05:53:47.607Z,110.88
2024-04-12T05:54:47.599Z,106.42
2024-04-12T05:55:47.569Z,106.65
2024-04-12T05:56:47.596Z,106.47
2024-04-12T05:57:47.553Z,106.30
2024-04-12T05:58:47.579Z,102.34
2024-04-12T05:59:47.616Z,105.54
2024-04-12T06:00:47.684Z,102.19
2024-04-12T06:01:47.672Z,101.31
2024-04-12T06:02:47.623Z,100.73
2024-04-12T06:04:47.571Z,101.98
2024-04-12T06:05:47.595Z,103.06
2024-04-12T06:06:47.598Z,100.81
2024-04-12T06:07:47.633Z,102.27
2024-04-12T06:08:47.653Z,103.23
2024-04-12T06:09:47.580Z,104.59
2024-04-12T06:10:47.588Z,103.28
2024-04-12T06:11:47.747Z,105.44
2024-04-12T06:12:48.650Z,105.76
2024-04-12T06:13:47.586Z,108.04
2024-04-12T06:14:47.622Z,106.60
2024-04-12T06:15:47.602Z,108.46
2024-04-12T06:16:47.617Z,108.24
2024-04-12T06:17:47.719Z,109.43
2024-04-12T06:18:47.634Z,110.21
2024-04-12T06:19:47.597Z,110.76
2024-04-12T06:20:47.634Z,109.99
2024-04-12T06:21:47.650Z,112.12
2024-04-12T06:22:47.632Z,112.02
2024-04-12T06:23:47.685Z,110.81
2024-04-12T06:24:47.695Z,110.16
2024-04-12T06:25:47.711Z,111.40
2024-04-12T06:26:47.777Z,112.37
2024-04-12T06:27:47.746Z,112.31
2024-04-12T06:28:47.762Z,113.12
2024-04-12T06:29:47.967Z,112.73
2024-04-12T06:30:47.821Z,113.73
2024-04-12T06:31:48.106Z,113.82
2024-04-12T06:32:48.075Z,112.28
2024-04-12T06:33:47.971Z,114.18
2024-04-12T06:34:47.899Z,116.25
2024-04-12T06:35:47.918Z,116.99
2024-04-12T06:36:48.028Z,119.30
2024-04-12T06:37:49.685Z,122.03
2024-04-12T06:38:48.036Z,127.42
2024-04-12T06:39:47.964Z,128.29
2024-04-12T06:40:47.952Z,133.30
2024-04-12T06:41:48.126Z,137.51
2024-04-12T06:42:48.027Z,142.86
2024-04-12T06:43:48.044Z,144.52
2024-04-12T06:44:47.992Z,149.37
2024-04-12T06:45:47.976Z,150.97
2024-04-12T06:46:48.002Z,148.00
2024-04-12T06:47:48.068Z,150.18
2024-04-12T06:48:48.043Z,153.11
2024-04-12T06:49:47.954Z,157.02
2024-04-12T06:50:47.971Z,156.27
2024-04-12T06:51:47.964Z,157.77
2024-04-12T06:52:47.952Z,161.48
2024-04-12T06:53:48.071Z,159.05
2024-04-12T06:54:47.981Z,159.80
2024-04-12T06:55:47.995Z,159.52
2024-04-12T06:56:48.013Z,155.09
2024-04-12T06:57:47.972Z,154.67
2024-04-12T06:58:48.119Z,153.85
2024-04-12T06:59:48.012Z,150.21
2024-04-12T07:00:47.969Z,150.20
2024-04-12T07:01:48.113Z,150.87
2024-04-12T07:02:48.156Z,147.84
2024-04-12T07:03:48.484Z,147.00
2024-04-12T07:04:47.970Z,146.59
2024-04-12T07:05:48.003Z,144.33
2024-04-12T07:06:47.987Z,145.52
2024-04-12T07:07:47.976Z,147.07
2024-04-12T07:08:48.000Z,150.09
2024-04-12T07:09:48.014Z,150.76
2024-04-12T07:10:47.999Z,148.72
2024-04-12T07:11:48.053Z,154.27
2024-04-12T07:12:47.997Z,153.39
2024-04-12T07:13:48.012Z,152.99
2024-04-12T07:14:48.026Z,154.92
2024-04-12T07:15:48.039Z,154.30
2024-04-12T07:16:48.009Z,153.00
2024-04-12T07:17:48.120Z,152.44
2024-04-12T07:18:48.059Z,150.17
2024-04-12T07:19:48.112Z,150.76
2024-04-12T07:20:48.038Z,147.93
2024-04-12T07:21:48.095Z,150.05
2024-04-12T07:22:48.055Z,148.19
2024-04-12T07:23:48.420Z,148.18
2024-04-12T07:24:48.038Z,149.61
2024-04-12T07:25:48.034Z,147.95
2024-04-12T07:26:48.132Z,148.25
2024-04-12T07:27:48.050Z,149.20
2024-04-12T07:28:48.029Z,151.79
2024-04-12T07:29:48.116Z,150.05
2024-04-12T07:30:48.055Z,147.30
2024-04-12T07:31:48.143Z,146.58
2024-04-12T07:32:48.143Z,145.25
2024-04-12T07:33:48.129Z,146.06
2024-04-12T07:34:48.020Z,143.98
2024-04-12T07:35:48.079Z,142.99
2024-04-12T07:36:48.059Z,144.48
2024-04-12T07:37:48.087Z,142.93
2024-04-12T07:38:48.260Z,146.35
2024-04-12T07:39:48.060Z,144.23
2024-04-12T07:40:48.031Z,141.73
2024-04-12T07:41:48.070Z,142.16
2024-04-12T07:42:48.093Z,142.13
2024-04-12T07:43:48.059Z,142.79
2024-04-12T07:44:48.086Z,143.07
2024-04-12T07:45:48.169Z,143.59
2024-04-12T07:46:48.194Z,145.92
2024-04-12T07:47:48.144Z,144.10
2024-04-12T07:48:48.135Z,146.03
2024-04-12T07:49:48.064Z,144.79
2024-04-12T07:50:48.120Z,143.01
2024-04-12T07:51:48.071Z,142.52
2024-04-12T07:52:48.055Z,144.81
2024-04-12T07:53:48.150Z,143.08
2024-04-12T07:54:48.143Z,142.46
2024-04-12T07:55:49.555Z,142.33
2024-04-12T07:56:48.087Z,144.95
2024-04-12T07:57:48.096Z,143.21
2024-04-12T07:58:48.078Z,143.17
2024-04-12T07:59:48.140Z,144.09
2024-04-12T08:00:48.126Z,143.02
2024-04-12T08:01:48.155Z,146.25
2024-04-12T08:02:48.143Z,145.34
2024-04-12T08:03:48.182Z,149.43
2024-04-12T08:04:48.131Z,148.53
2024-04-12T08:05:48.132Z,149.70
2024-04-12T08:06:48.091Z,148.46
2024-04-12T08:07:48.103Z,149.25
2024-04-12T08:08:48.149Z,149.90
2024-04-12T08:09:48.133Z,150.55
2024-04-12T08:10:48.169Z,150.22
2024-04-12T08:11:48.180Z,146.16
2024-04-12T08:12:48.141Z,147.42
2024-04-12T08:13:48.094Z,144.29
2024-04-12T08:14:48.156Z,142.39
2024-04-12T08:15:48.147Z,143.35
2024-04-12T08:16:48.114Z,139.29
2024-04-12T08:17:48.263Z,136.39
2024-04-12T08:18:48.166Z,136.20
2024-04-12T08:19:48.101Z,134.98
2024-04-12T08:20:48.259Z,133.73
2024-04-12T08:21:48.661Z,133.21
2024-04-12T08:22:48.149Z,131.63
2024-04-12T08:23:48.258Z,131.76
2024-04-12T08:24:48.216Z,131.26
2024-04-12T08:25:48.106Z,131.63
2024-04-12T08:26:48.199Z,133.21
2024-04-12T08:27:48.173Z,135.65
2024-04-12T08:28:48.115Z,130.98
2024-04-12T08:29:48.151Z,128.16
2024-04-12T08:30:48.189Z,127.55
2024-04-12T08:31:48.172Z,123.10
2024-04-12T08:32:48.202Z,124.42
2024-04-12T08:33:48.192Z,123.52
2024-04-12T08:34:48.130Z,123.31
2024-04-12T08:35:48.202Z,121.95
2024-04-12T08:36:48.160Z,120.79
2024-04-12T08:37:51.239Z,120.72
2024-04-12T08:38:49.185Z,120.77
2024-04-12T08:39:48.168Z,120.09
2024-04-12T08:40:48.201Z,116.91
2024-04-12T08:41:48.207Z,115.95
2024-04-12T08:42:48.188Z,124.59
2024-04-12T08:43:48.142Z,142.29
2024-04-12T08:44:48.327Z,139.73
2024-04-12T08:45:48.215Z,143.23
2024-04-12T08:46:48.331Z,141.88
2024-04-12T08:47:48.397Z,142.82
2024-04-12T08:48:48.498Z,143.32
2024-04-12T08:49:48.334Z,141.43
2024-04-12T08:50:48.457Z,143.22
2024-04-12T08:51:48.473Z,146.96
2024-04-12T08:52:48.535Z,149.22
2024-04-12T08:53:48.632Z,148.33
2024-04-12T08:54:48.676Z,151.68
2024-04-12T08:55:48.717Z,150.50
2024-04-12T08:56:48.793Z,149.26
2024-04-12T08:57:48.947Z,148.01
2024-04-12T08:58:48.920Z,147.75
2024-04-12T08:59:49.059Z,148.95
2024-04-12T09:00:49.084Z,147.88
2024-04-12T09:01:49.125Z,147.11
2024-04-12T09:02:50.291Z,145.80
2024-04-12T09:03:49.311Z,145.41
2024-04-12T09:04:49.340Z,146.86
2024-04-12T09:05:49.588Z,148.15
2024-04-12T09:06:49.413Z,147.37
2024-04-12T09:07:49.503Z,150.19
2024-04-12T09:08:49.618Z,151.61
2024-04-12T09:09:49.622Z,153.03
2024-04-12T09:10:49.680Z,157.10
2024-04-12T09:11:49.796Z,154.70
2024-04-12T09:12:49.798Z,153.63
2024-04-12T09:13:49.848Z,151.99
2024-04-12T09:14:49.913Z,150.21
2024-04-12T09:15:49.952Z,147.07
2024-04-12T09:16:50.135Z,143.97
2024-04-12T09:17:50.269Z,138.79
2024-04-12T09:18:50.243Z,134.79
2024-04-12T09:19:50.176Z,132.20
2024-04-12T09:20:50.285Z,126.96
2024-04-12T09:21:50.350Z,123.77
2024-04-12T09:22:50.383Z,122.48
2024-04-12T09:23:50.452Z,125.27
2024-04-12T09:24:50.520Z,124.59
2024-04-12T09:25:50.560Z,126.12
2024-04-12T09:26:50.646Z,127.25
2024-04-12T09:27:50.763Z,129.11
2024-04-12T09:28:50.828Z,132.20
2024-04-12T09:29:50.803Z,137.65
2024-04-12T09:30:50.820Z,140.89
2024-04-12T09:31:50.938Z,142.94
2024-04-12T09:32:51.093Z,147.81
2024-04-12T09:33:51.164Z,151.34
2024-04-12T09:34:51.053Z,153.64
2024-04-12T09:35:51.205Z,159.89
2024-04-12T09:36:51.167Z,160.66
2024-04-12T09:37:51.244Z,166.62
2024-04-12T09:38:51.293Z,169.24
2024-04-12T09:39:51.344Z,173.25
2024-04-12T09:40:51.356Z,173.17
2024-04-12T09:41:51.431Z,171.81
2024-04-12T09:42:51.697Z,167.77
2024-04-12T09:43:51.450Z,166.62
2024-04-12T09:44:51.548Z,164.79
2024-04-12T09:45:51.546Z,163.02
2024-04-12T09:46:51.621Z,163.93
2024-04-12T09:47:51.847Z,160.89
2024-04-12T09:48:51.771Z,163.83
2024-04-12T09:49:51.895Z,161.07
2024-04-12T09:50:51.864Z,162.55
2024-04-12T09:51:51.877Z,165.91
2024-04-12T09:52:51.938Z,169.06
2024-04-12T09:53:52.077Z,168.84
2024-04-12T09:54:52.086Z,171.32
2024-04-12T09:55:52.213Z,173.68
2024-04-12T09:56:52.265Z,175.02
2024-04-12T09:57:52.297Z,177.68
2024-04-12T09:58:52.332Z,179.93
2024-04-12T09:59:52.451Z,181.06
2024-04-12T10:00:52.476Z,184.44
2024-04-12T10:01:52.545Z,181.20
2024-04-12T10:02:52.856Z,183.82
2024-04-12T10:03:52.701Z,185.41
2024-04-12T10:04:52.753Z,185.72
2024-04-12T10:05:52.853Z,186.31
2024-04-12T10:06:52.906Z,186.82
2024-04-12T10:07:52.927Z,192.07
2024-04-12T10:08:53.028Z,192.70
2024-04-12T10:09:53.042Z,196.31
2024-04-12T10:10:53.143Z,197.18
2024-04-12T10:11:53.199Z,198.24
2024-04-12T10:12:53.282Z,198.82
2024-04-12T10:13:53.291Z,198.62
2024-04-12T10:14:53.368Z,199.39
2024-04-12T10:15:53.433Z,198.43
2024-04-12T10:16:53.502Z,199.01
2024-04-12T10:17:53.739Z,198.84
2024-04-12T10:18:53.753Z,198.71
2024-04-12T10:19:53.690Z,197.79
2024-04-12T10:20:53.830Z,194.39
2024-04-12T10:21:53.882Z,196.39
2024-04-12T10:22:53.911Z,198.58
2024-04-12T10:23:54.009Z,196.39
2024-04-12T10:24:54.049Z,196.85
2024-04-12T10:25:54.093Z,199.64
2024-04-12T10:26:54.162Z,199.38
2024-04-12T10:27:54.700Z,196.64
2024-04-12T10:28:54.256Z,195.33
2024-04-12T10:29:54.370Z,197.41
2024-04-12T10:30:54.387Z,194.73
2024-04-12T10:31:54.492Z,195.51
2024-04-12T10:32:54.633Z,194.88
2024-04-12T10:33:54.595Z,199.11
2024-04-12T10:34:54.600Z,197.22
2024-04-12T10:35:54.824Z,197.30
2024-04-12T10:36:54.732Z,195.47
2024-04-12T10:37:54.813Z,194.39
2024-04-12T10:38:54.927Z,190.48
2024-04-12T10:39:54.958Z,187.32
2024-04-12T10:40:55.004Z,178.04
2024-04-12T10:41:55.056Z,173.29
2024-04-12T10:42:55.243Z,170.27
2024-04-12T10:43:55.148Z,165.27
2024-04-12T10:44:55.252Z,161.73
2024-04-12T10:45:55.336Z,156.83
2024-04-12T10:46:55.339Z,157.94
2024-04-12T10:47:55.438Z,154.35
2024-04-12T10:48:55.484Z,154.33
2024-04-12T10:49:55.515Z,152.63
2024-04-12T10:50:55.679Z,153.96
2024-04-12T10:51:55.627Z,153.87
2024-04-12T10:52:55.704Z,158.10
2024-04-12T10:53:55.782Z,158.07
2024-04-12T10:54:55.793Z,153.85
2024-04-12T10:55:55.893Z,142.66
2024-04-12T10:56:58.873Z,131.00
2024-04-12T10:57:56.013Z,121.26
2024-04-12T10:58:55.932Z,110.54
2024-04-12T10:59:55.954Z,99.71
2024-04-12T11:00:55.985Z,96.48
2024-04-12T11:01:55.945Z,94.80
2024-04-12T11:03:02.771Z,92.34
2024-04-12T11:03:56.978Z,92.55
2024-04-12T11:04:58.085Z,93.33
2024-04-12T11:05:55.954Z,92.41
2024-04-12T11:06:55.952Z,90.79
2024-04-12T11:07:56.222Z,89.49
2024-04-12T11:08:55.992Z,90.30
2024-04-12T11:09:55.971Z,96.04
2024-04-12T11:10:56.093Z,100.87
2024-04-12T11:11:55.978Z,97.98
2024-04-12T11:12:55.964Z,96.05
2024-04-12T11:13:55.968Z,91.86
2024-04-12T11:14:56.001Z,71.50
2024-04-12T11:15:56.006Z,59.14
2024-04-12T11:16:55.968Z,48.37
2024-04-12T11:17:56.124Z,49.97
2024-04-12T11:18:56.146Z,54.41
2024-04-12T11:19:55.988Z,62.01
2024-04-12T11:20:56.008Z,70.74
2024-04-12T11:21:56.032Z,70.42
2024-04-12T11:22:56.003Z,67.54
2024-04-12T11:23:55.994Z,65.69
2024-04-12T11:24:56.022Z,64.46
2024-04-12T11:25:55.965Z,62.38
2024-04-12T11:26:55.986Z,62.66
2024-04-12T11:27:56.004Z,61.73
2024-04-12T11:28:55.998Z,63.31
2024-04-12T11:29:56.028Z,63.34
2024-04-12T11:30:56.012Z,61.25
2024-04-12T11:31:56.043Z,57.98
2024-04-12T11:32:56.024Z,55.24
2024-04-12T11:34:04.018Z,52.99
2024-04-12T11:34:57.100Z,53.01
2024-04-12T11:35:56.168Z,53.11
2024-04-12T11:36:56.009Z,53.03
2024-04-12T11:37:56.012Z,50.27
2024-04-12T11:38:56.019Z,43.34
2024-04-12T11:39:56.006Z,50.00
2024-04-12T11:40:56.014Z,49.83
2024-04-12T11:41:56.061Z,50.00
2024-04-12T11:42:56.047Z,50.00
2024-04-12T11:43:56.083Z,51.06
2024-04-12T11:44:56.090Z,51.78
2024-04-12T11:45:56.022Z,50.48
2024-04-12T11:46:56.027Z,51.19
2024-04-12T11:47:56.248Z,50.35
2024-04-12T11:48:56.233Z,50.00
2024-04-12T11:49:56.139Z,50.00
2024-04-12T11:50:56.190Z,50.00
2024-04-12T11:51:56.206Z,50.91
2024-04-12T11:52:56.561Z,50.00
2024-04-12T11:53:56.298Z,51.57
2024-04-12T11:54:56.344Z,49.99
2024-04-12T11:55:56.366Z,50.27
2024-04-12T11:56:56.434Z,50.06
2024-04-12T11:57:56.430Z,52.15
2024-04-12T11:58:57.137Z,50.09
2024-04-12T11:59:56.491Z,53.32
2024-04-12T12:00:56.531Z,54.84
2024-04-12T12:01:56.588Z,57.68
2024-04-12T12:02:56.620Z,57.33
2024-04-12T12:03:56.626Z,58.47
2024-04-12T12:04:56.610Z,55.83
2024-04-12T12:05:56.683Z,55.75
2024-04-12T12:06:56.662Z,56.50
2024-04-12T12:07:56.672Z,50.76
2024-04-12T12:08:56.703Z,49.97
2024-04-12T12:09:56.742Z,50.67
2024-04-12T12:10:56.739Z,51.15
2024-04-12T12:11:56.825Z,51.83
2024-04-12T12:12:56.767Z,50.24
2024-04-12T12:13:56.809Z,51.21
2024-04-12T12:14:56.852Z,52.11
2024-04-12T12:15:56.813Z,50.00
2024-04-12T12:16:57.366Z,51.84
2024-04-12T12:17:56.933Z,53.87
2024-04-12T12:18:56.925Z,56.48
2024-04-12T12:19:56.900Z,58.29
2024-04-12T12:20:57.054Z,58.60
2024-04-12T12:21:56.998Z,60.38
2024-04-12T12:22:56.998Z,61.24
2024-04-12T12:23:57.052Z,56.39
2024-04-12T12:24:57.036Z,57.93
2024-04-12T12:25:57.074Z,55.09
2024-04-12T12:26:57.152Z,50.42
2024-04-12T12:27:57.145Z,50.39
2024-04-12T12:28:57.178Z,50.89
2024-04-12T12:29:57.222Z,52.47
2024-04-12T12:30:57.231Z,52.27
2024-04-12T12:31:57.266Z,50.56
2024-04-12T12:32:57.379Z,50.08
2024-04-12T12:33:57.392Z,50.00
2024-04-12T12:34:57.340Z,50.47